sensor_id;sensor_type;location;lat;lon;timestamp;pressure;altitude;pressure_sealevel;temperature;humidity
51603;BME280;37954;51.980;5.850;2022-11-20T00:03:55;101033.75;;;-1.48;74.02
51603;BME280;37954;51.980;5.850;2022-11-20T00:08:07;101031.38;;;-1.51;73.87
51603;BME280;37954;51.980;5.850;2022-11-20T00:12:19;101012.50;;;-1.56;74.11
51603;BME280;37954;51.980;5.850;2022-11-20T00:16:32;101011.16;;;-1.60;74.13
51603;BME280;37954;51.980;5.850;2022-11-20T00:20:44;101008.66;;;-1.61;74.26
51603;BME280;37954;51.980;5.850;2022-11-20T00:24:55;100993.41;;;-1.67;74.39
51603;BME280;37954;51.980;5.850;2022-11-20T00:29:09;100991.03;;;-1.70;74.55
51603;BME280;37954;51.980;5.850;2022-11-20T00:33:21;100995.59;;;-1.72;74.55
51603;BME280;37954;51.980;5.850;2022-11-20T00:37:33;101002.66;;;-1.73;74.37
51603;BME280;37954;51.980;5.850;2022-11-20T00:41:44;101000.47;;;-1.78;74.84
51603;BME280;37954;51.980;5.850;2022-11-20T00:46:00;101003.09;;;-1.78;74.70
51603;BME280;37954;51.980;5.850;2022-11-20T00:50:12;101003.38;;;-1.81;74.74
51603;BME280;37954;51.980;5.850;2022-11-20T00:54:24;100988.94;;;-1.86;74.84
51603;BME280;37954;51.980;5.850;2022-11-20T00:58:38;100996.00;;;-1.87;75.12
51603;BME280;37954;51.980;5.850;2022-11-20T01:02:49;101000.31;;;-1.86;75.33
51603;BME280;37954;51.980;5.850;2022-11-20T01:07:01;101001.72;;;-1.91;75.57
51603;BME280;37954;51.980;5.850;2022-11-20T01:11:21;100994.63;;;-1.91;75.55
51603;BME280;37954;51.980;5.850;2022-11-20T01:15:33;100997.53;;;-1.94;75.55
51603;BME280;37954;51.980;5.850;2022-11-20T01:19:49;100986.31;;;-1.96;75.61
51603;BME280;37954;51.980;5.850;2022-11-20T01:24:03;100974.38;;;-2.00;75.33
51603;BME280;37954;51.980;5.850;2022-11-20T01:28:15;100986.72;;;-2.00;76.13
51603;BME280;37954;51.980;5.850;2022-11-20T01:32:26;100958.28;;;-2.06;75.90
51603;BME280;37954;51.980;5.850;2022-11-20T01:36:39;100965.78;;;-2.02;75.73
51603;BME280;37954;51.980;5.850;2022-11-20T01:40:54;100966.06;;;-2.05;75.83
51603;BME280;37954;51.980;5.850;2022-11-20T01:50:00;100956.78;;;-2.09;76.48
51603;BME280;37954;51.980;5.850;2022-11-20T01:54:21;100955.13;;;-2.10;76.34
51603;BME280;37954;51.980;5.850;2022-11-20T01:58:36;100946.94;;;-2.17;76.69
51603;BME280;37954;51.980;5.850;2022-11-20T02:02:56;100972.03;;;-2.13;76.25
51603;BME280;37954;51.980;5.850;2022-11-20T02:07:08;100960.22;;;-2.18;76.19
51603;BME280;37954;51.980;5.850;2022-11-20T02:11:21;100963.56;;;-2.16;76.40
51603;BME280;37954;51.980;5.850;2022-11-20T02:15:33;100964.66;;;-2.19;76.90
51603;BME280;37954;51.980;5.850;2022-11-20T02:19:45;100964.78;;;-2.20;76.95
51603;BME280;37954;51.980;5.850;2022-11-20T02:24:06;100966.59;;;-2.21;76.92
51603;BME280;37954;51.980;5.850;2022-11-20T02:28:19;100950.78;;;-2.30;76.83
51603;BME280;37954;51.980;5.850;2022-11-20T02:32:31;100950.53;;;-2.27;76.64
51603;BME280;37954;51.980;5.850;2022-11-20T02:36:44;100949.84;;;-2.29;76.64
51603;BME280;37954;51.980;5.850;2022-11-20T02:40:57;100953.56;;;-2.32;76.88
51603;BME280;37954;51.980;5.850;2022-11-20T02:45:09;100946.91;;;-2.36;77.00
51603;BME280;37954;51.980;5.850;2022-11-20T02:49:21;100953.25;;;-2.38;76.93
51603;BME280;37954;51.980;5.850;2022-11-20T02:53:33;100948.56;;;-2.44;76.81
51603;BME280;37954;51.980;5.850;2022-11-20T02:57:44;100938.03;;;-2.44;76.90
51603;BME280;37954;51.980;5.850;2022-11-20T03:01:56;100934.84;;;-2.48;77.47
51603;BME280;37954;51.980;5.850;2022-11-20T03:06:07;100934.97;;;-2.50;77.30
51603;BME280;37954;51.980;5.850;2022-11-20T03:10:19;100926.50;;;-2.53;77.38
51603;BME280;37954;51.980;5.850;2022-11-20T03:14:31;100937.72;;;-2.51;77.38
51603;BME280;37954;51.980;5.850;2022-11-20T03:18:43;100902.66;;;-2.71;77.26
51603;BME280;37954;51.980;5.850;2022-11-20T03:22:55;100926.63;;;-2.64;77.63
51603;BME280;37954;51.980;5.850;2022-11-20T03:27:06;100892.66;;;-2.77;77.28
51603;BME280;37954;51.980;5.850;2022-11-20T03:31:21;100886.59;;;-2.77;77.83
51603;BME280;37954;51.980;5.850;2022-11-20T03:35:33;100900.72;;;-2.69;77.39
51603;BME280;37954;51.980;5.850;2022-11-20T03:39:44;100904.31;;;-2.70;77.44
51603;BME280;37954;51.980;5.850;2022-11-20T03:43:58;100894.31;;;-2.76;77.86
51603;BME280;37954;51.980;5.850;2022-11-20T03:48:10;100895.72;;;-2.82;77.61
51603;BME280;37954;51.980;5.850;2022-11-20T03:52:22;100898.09;;;-2.78;77.89
51603;BME280;37954;51.980;5.850;2022-11-20T03:56:35;100901.81;;;-2.81;77.90
51603;BME280;37954;51.980;5.850;2022-11-20T04:00:47;100859.38;;;-3.07;77.71
51603;BME280;37954;51.980;5.850;2022-11-20T04:04:59;100900.25;;;-2.84;77.76
51603;BME280;37954;51.980;5.850;2022-11-20T04:09:10;100895.41;;;-2.88;77.87
51603;BME280;37954;51.980;5.850;2022-11-20T04:13:22;100885.16;;;-2.91;77.71
51603;BME280;37954;51.980;5.850;2022-11-20T04:17:34;100886.13;;;-2.92;78.04
51603;BME280;37954;51.980;5.850;2022-11-20T04:21:45;100888.47;;;-2.89;78.17
51603;BME280;37954;51.980;5.850;2022-11-20T04:26:05;100891.09;;;-2.89;78.19
51603;BME280;37954;51.980;5.850;2022-11-20T04:30:17;100880.13;;;-3.04;78.36
51603;BME280;37954;51.980;5.850;2022-11-20T04:34:28;100876.78;;;-3.06;78.13
51603;BME280;37954;51.980;5.850;2022-11-20T04:38:40;100879.44;;;-3.06;78.10
51603;BME280;37954;51.980;5.850;2022-11-20T04:42:52;100883.00;;;-3.07;77.83
51603;BME280;37954;51.980;5.850;2022-11-20T04:47:03;100893.84;;;-3.00;78.25
51603;BME280;37954;51.980;5.850;2022-11-20T04:51:15;100875.81;;;-3.14;78.77
51603;BME280;37954;51.980;5.850;2022-11-20T04:55:27;100881.78;;;-3.12;78.65
51603;BME280;37954;51.980;5.850;2022-11-20T04:59:38;100869.03;;;-3.17;78.39
51603;BME280;37954;51.980;5.850;2022-11-20T05:03:51;100869.59;;;-3.13;78.36
51603;BME280;37954;51.980;5.850;2022-11-20T05:08:03;100870.28;;;-3.11;78.80
51603;BME280;37954;51.980;5.850;2022-11-20T05:12:14;100855.19;;;-3.19;78.40
51603;BME280;37954;51.980;5.850;2022-11-20T05:16:26;100839.53;;;-3.30;78.44
51603;BME280;37954;51.980;5.850;2022-11-20T05:20:38;100840.91;;;-3.26;78.79
51603;BME280;37954;51.980;5.850;2022-11-20T05:24:49;100842.81;;;-3.28;79.10
51603;BME280;37954;51.980;5.850;2022-11-20T05:29:01;100841.19;;;-3.29;78.66
51603;BME280;37954;51.980;5.850;2022-11-20T05:33:13;100853.63;;;-3.31;78.85
51603;BME280;37954;51.980;5.850;2022-11-20T05:37:25;100857.75;;;-3.29;78.72
51603;BME280;37954;51.980;5.850;2022-11-20T05:41:36;100832.28;;;-3.38;78.77
51603;BME280;37954;51.980;5.850;2022-11-20T05:45:54;100835.75;;;-3.37;79.01
51603;BME280;37954;51.980;5.850;2022-11-20T05:50:06;100832.41;;;-3.39;79.33
51603;BME280;37954;51.980;5.850;2022-11-20T05:54:18;100837.16;;;-3.33;79.02
51603;BME280;37954;51.980;5.850;2022-11-20T05:58:31;100842.28;;;-3.32;78.99
51603;BME280;37954;51.980;5.850;2022-11-20T06:02:43;100836.84;;;-3.40;79.59
51603;BME280;37954;51.980;5.850;2022-11-20T06:06:54;100829.34;;;-3.44;79.61
51603;BME280;37954;51.980;5.850;2022-11-20T06:11:11;100840.56;;;-3.42;79.60
51603;BME280;37954;51.980;5.850;2022-11-20T06:15:24;100857.00;;;-3.40;79.75
51603;BME280;37954;51.980;5.850;2022-11-20T06:19:35;100862.25;;;-3.40;79.80
51603;BME280;37954;51.980;5.850;2022-11-20T06:23:48;100866.56;;;-3.39;79.71
51603;BME280;37954;51.980;5.850;2022-11-20T06:28:00;100875.00;;;-3.36;79.58
51603;BME280;37954;51.980;5.850;2022-11-20T06:32:11;100866.81;;;-3.42;79.65
51603;BME280;37954;51.980;5.850;2022-11-20T06:36:23;100866.94;;;-3.44;79.79
51603;BME280;37954;51.980;5.850;2022-11-20T06:40:34;100859.59;;;-3.50;79.53
51603;BME280;37954;51.980;5.850;2022-11-20T06:44:46;100873.44;;;-3.48;79.62
51603;BME280;37954;51.980;5.850;2022-11-20T06:48:58;100888.53;;;-3.40;79.50
51603;BME280;37954;51.980;5.850;2022-11-20T06:53:09;100863.31;;;-3.53;79.89
51603;BME280;37954;51.980;5.850;2022-11-20T06:57:21;100873.56;;;-3.49;79.58
51603;BME280;37954;51.980;5.850;2022-11-20T07:01:33;100872.72;;;-3.50;80.09
51603;BME280;37954;51.980;5.850;2022-11-20T07:05:44;100869.00;;;-3.47;80.17
51603;BME280;37954;51.980;5.850;2022-11-20T07:09:57;100874.09;;;-3.46;79.98
51603;BME280;37954;51.980;5.850;2022-11-20T07:14:08;100859.97;;;-3.55;80.42
51603;BME280;37954;51.980;5.850;2022-11-20T07:18:20;100878.16;;;-3.42;79.99
51603;BME280;37954;51.980;5.850;2022-11-20T07:22:32;100877.97;;;-3.29;80.37
51603;BME280;37954;51.980;5.850;2022-11-20T07:26:46;100863.16;;;-3.30;80.45
51603;BME280;37954;51.980;5.850;2022-11-20T07:30:58;100849.22;;;-3.21;80.82
51603;BME280;37954;51.980;5.850;2022-11-20T07:35:10;100845.81;;;-3.12;80.94
51603;BME280;37954;51.980;5.850;2022-11-20T07:39:22;100860.78;;;-2.93;81.06
51603;BME280;37954;51.980;5.850;2022-11-20T07:43:34;100837.00;;;-2.92;80.88
51603;BME280;37954;51.980;5.850;2022-11-20T07:47:51;100839.84;;;-2.74;81.32
51603;BME280;37954;51.980;5.850;2022-11-20T07:52:03;100828.53;;;-2.65;81.72
51603;BME280;37954;51.980;5.850;2022-11-20T07:56:15;100840.44;;;-2.51;81.17
51603;BME280;37954;51.980;5.850;2022-11-20T08:00:27;100833.25;;;-2.39;81.21
51603;BME280;37954;51.980;5.850;2022-11-20T08:04:39;100849.31;;;-2.14;81.83
51603;BME280;37954;51.980;5.850;2022-11-20T08:08:51;100841.28;;;-2.02;81.64
51603;BME280;37954;51.980;5.850;2022-11-20T08:13:02;100848.59;;;-1.77;81.99
51603;BME280;37954;51.980;5.850;2022-11-20T08:17:33;100857.41;;;-1.49;82.02
51603;BME280;37954;51.980;5.850;2022-11-20T08:21:45;100851.94;;;-1.28;82.32
51603;BME280;37954;51.980;5.850;2022-11-20T08:25:57;100868.47;;;-0.99;82.24
51603;BME280;37954;51.980;5.850;2022-11-20T08:30:09;100857.00;;;-0.80;82.16
51603;BME280;37954;51.980;5.850;2022-11-20T08:34:21;100840.78;;;-0.58;82.18
51603;BME280;37954;51.980;5.850;2022-11-20T08:38:32;100838.31;;;-0.42;82.23
51603;BME280;37954;51.980;5.850;2022-11-20T08:42:48;100837.91;;;-0.29;82.22
51603;BME280;37954;51.980;5.850;2022-11-20T08:47:00;100840.91;;;0.29;81.96
51603;BME280;37954;51.980;5.850;2022-11-20T08:51:12;100842.69;;;1.89;82.58
51603;BME280;37954;51.980;5.850;2022-11-20T08:55:24;100833.66;;;3.19;81.49
51603;BME280;37954;51.980;5.850;2022-11-20T08:59:35;100822.78;;;3.05;78.74
51603;BME280;37954;51.980;5.850;2022-11-20T09:04:07;100838.00;;;2.64;78.74
51603;BME280;37954;51.980;5.850;2022-11-20T09:08:19;100836.06;;;2.26;78.38
51603;BME280;37954;51.980;5.850;2022-11-20T09:12:30;100817.88;;;1.90;78.56
51603;BME280;37954;51.980;5.850;2022-11-20T09:16:42;100806.25;;;1.51;78.01
51603;BME280;37954;51.980;5.850;2022-11-20T09:21:00;100801.06;;;1.33;77.37
51603;BME280;37954;51.980;5.850;2022-11-20T09:25:12;100794.25;;;1.14;77.42
51603;BME280;37954;51.980;5.850;2022-11-20T09:29:24;100810.75;;;1.08;77.28
51603;BME280;37954;51.980;5.850;2022-11-20T09:33:36;100812.38;;;1.01;77.02
51603;BME280;37954;51.980;5.850;2022-11-20T09:37:48;100817.34;;;1.04;77.23
51603;BME280;37954;51.980;5.850;2022-11-20T09:42:03;100807.94;;;1.01;77.44
51603;BME280;37954;51.980;5.850;2022-11-20T09:46:29;100796.13;;;0.88;77.64
51603;BME280;37954;51.980;5.850;2022-11-20T09:55:21;100792.03;;;0.93;77.50
51603;BME280;37954;51.980;5.850;2022-11-20T09:59:44;100786.94;;;1.00;77.98
51603;BME280;37954;51.980;5.850;2022-11-20T10:04:10;100796.41;;;1.19;77.91
51603;BME280;37954;51.980;5.850;2022-11-20T10:08:28;100768.97;;;1.20;78.08
51603;BME280;37954;51.980;5.850;2022-11-20T10:17:41;100767.03;;;1.46;77.93
51603;BME280;37954;51.980;5.850;2022-11-20T10:26:49;100758.59;;;1.75;78.05
51603;BME280;37954;51.980;5.850;2022-11-20T10:31:08;100733.94;;;1.74;78.12
51603;BME280;37954;51.980;5.850;2022-11-20T10:35:27;100734.75;;;1.91;77.92
51603;BME280;37954;51.980;5.850;2022-11-20T10:40:20;100716.22;;;1.91;77.76
51603;BME280;37954;51.980;5.850;2022-11-20T10:44:33;100719.50;;;2.09;77.65
51603;BME280;37954;51.980;5.850;2022-11-20T10:49:25;100721.66;;;2.14;77.69
51603;BME280;37954;51.980;5.850;2022-11-20T10:58:14;100710.72;;;2.17;77.46
51603;BME280;37954;51.980;5.850;2022-11-20T11:02:34;100709.50;;;2.28;77.57
51603;BME280;37954;51.980;5.850;2022-11-20T11:06:47;100699.28;;;2.17;77.91
51603;BME280;37954;51.980;5.850;2022-11-20T11:11:05;100682.88;;;2.21;77.97
51603;BME280;37954;51.980;5.850;2022-11-20T11:15:29;100680.53;;;2.26;77.70
51603;BME280;37954;51.980;5.850;2022-11-20T11:19:41;100664.34;;;2.21;77.64
51603;BME280;37954;51.980;5.850;2022-11-20T11:24:01;100658.31;;;2.35;77.85
51603;BME280;37954;51.980;5.850;2022-11-20T11:28:33;100650.84;;;2.39;77.72
51603;BME280;37954;51.980;5.850;2022-11-20T11:32:46;100649.97;;;2.47;77.64
51603;BME280;37954;51.980;5.850;2022-11-20T11:36:58;100649.63;;;2.58;78.37
51603;BME280;37954;51.980;5.850;2022-11-20T11:41:20;100639.59;;;2.68;78.35
51603;BME280;37954;51.980;5.850;2022-11-20T11:45:32;100616.41;;;2.70;78.25
51603;BME280;37954;51.980;5.850;2022-11-20T11:49:44;100609.59;;;2.67;78.52
51603;BME280;37954;51.980;5.850;2022-11-20T11:53:58;100611.94;;;2.62;78.09
51603;BME280;37954;51.980;5.850;2022-11-20T12:02:55;100589.50;;;2.50;78.48
51603;BME280;37954;51.980;5.850;2022-11-20T12:07:41;100593.56;;;2.61;78.67
51603;BME280;37954;51.980;5.850;2022-11-20T12:12:09;100592.31;;;2.49;79.00
51603;BME280;37954;51.980;5.850;2022-11-20T12:16:21;100605.72;;;2.55;79.62
51603;BME280;37954;51.980;5.850;2022-11-20T12:20:40;100566.81;;;2.48;80.18
51603;BME280;37954;51.980;5.850;2022-11-20T12:25:00;100562.16;;;2.50;80.62
51603;BME280;37954;51.980;5.850;2022-11-20T12:34:02;100556.22;;;2.70;80.57
51603;BME280;37954;51.980;5.850;2022-11-20T12:43:06;100540.78;;;2.74;80.92
51603;BME280;37954;51.980;5.850;2022-11-20T12:52:24;100523.81;;;2.83;80.99
51603;BME280;37954;51.980;5.850;2022-11-20T12:57:08;100522.44;;;2.87;81.50
51603;BME280;37954;51.980;5.850;2022-11-20T13:01:51;100532.53;;;2.92;81.53
51603;BME280;37954;51.980;5.850;2022-11-20T13:06:17;100525.41;;;2.92;81.46
51603;BME280;37954;51.980;5.850;2022-11-20T13:10:39;100514.38;;;2.80;81.42
51603;BME280;37954;51.980;5.850;2022-11-20T13:19:16;100470.78;;;2.60;81.88
51603;BME280;37954;51.980;5.850;2022-11-20T13:23:28;100466.69;;;2.58;82.28
51603;BME280;37954;51.980;5.850;2022-11-20T13:27:47;100422.38;;;2.43;82.28
51603;BME280;37954;51.980;5.850;2022-11-20T13:32:05;100435.13;;;2.63;83.11
51603;BME280;37954;51.980;5.850;2022-11-20T13:36:27;100435.13;;;2.63;83.40
51603;BME280;37954;51.980;5.850;2022-11-20T13:40:53;100439.09;;;2.67;83.83
51603;BME280;37954;51.980;5.850;2022-11-20T13:45:11;100431.66;;;2.62;84.06
51603;BME280;37954;51.980;5.850;2022-11-20T13:49:38;100419.41;;;2.61;84.25
51603;BME280;37954;51.980;5.850;2022-11-20T13:58:36;100398.19;;;2.61;84.55
51603;BME280;37954;51.980;5.850;2022-11-20T14:03:11;100397.31;;;2.69;84.67
51603;BME280;37954;51.980;5.850;2022-11-20T14:07:35;100373.09;;;2.72;85.26
51603;BME280;37954;51.980;5.850;2022-11-20T14:11:48;100375.81;;;2.78;85.52
51603;BME280;37954;51.980;5.850;2022-11-20T14:15:59;100360.81;;;2.71;85.47
51603;BME280;37954;51.980;5.850;2022-11-20T14:20:14;100358.19;;;2.71;85.32
51603;BME280;37954;51.980;5.850;2022-11-20T14:24:26;100333.19;;;2.65;85.48
51603;BME280;37954;51.980;5.850;2022-11-20T14:28:39;100336.78;;;2.72;86.00
51603;BME280;37954;51.980;5.850;2022-11-20T14:32:54;100319.66;;;2.60;86.82
51603;BME280;37954;51.980;5.850;2022-11-20T14:37:11;100362.31;;;2.73;86.98
51603;BME280;37954;51.980;5.850;2022-11-20T14:41:27;100348.22;;;2.73;86.50
51603;BME280;37954;51.980;5.850;2022-11-20T14:45:39;100322.59;;;2.65;87.48
51603;BME280;37954;51.980;5.850;2022-11-20T14:49:52;100306.69;;;2.65;87.29
51603;BME280;37954;51.980;5.850;2022-11-20T14:54:15;100292.53;;;2.73;87.07
51603;BME280;37954;51.980;5.850;2022-11-20T14:58:29;100282.47;;;2.68;87.70
51603;BME280;37954;51.980;5.850;2022-11-20T15:02:48;100276.44;;;2.74;87.52
51603;BME280;37954;51.980;5.850;2022-11-20T15:07:00;100277.34;;;2.82;88.20
51603;BME280;37954;51.980;5.850;2022-11-20T15:11:20;100269.38;;;2.82;88.14
51603;BME280;37954;51.980;5.850;2022-11-20T15:15:48;100272.66;;;2.84;88.45
51603;BME280;37954;51.980;5.850;2022-11-20T15:20:01;100261.25;;;2.83;88.75
51603;BME280;37954;51.980;5.850;2022-11-20T15:24:13;100254.75;;;2.86;88.74
51603;BME280;37954;51.980;5.850;2022-11-20T15:28:54;100252.38;;;2.91;89.54
51603;BME280;37954;51.980;5.850;2022-11-20T15:33:08;100251.38;;;2.92;89.73
51603;BME280;37954;51.980;5.850;2022-11-20T15:37:19;100254.84;;;2.92;89.24
51603;BME280;37954;51.980;5.850;2022-11-20T15:41:35;100252.81;;;2.94;89.79
51603;BME280;37954;51.980;5.850;2022-11-20T15:45:59;100249.59;;;2.99;89.63
51603;BME280;37954;51.980;5.850;2022-11-20T15:50:14;100250.59;;;2.98;89.94
51603;BME280;37954;51.980;5.850;2022-11-20T15:54:28;100231.59;;;2.94;89.94
51603;BME280;37954;51.980;5.850;2022-11-20T15:58:40;100225.34;;;3.02;89.83
51603;BME280;37954;51.980;5.850;2022-11-20T16:02:52;100231.84;;;2.99;90.36
51603;BME280;37954;51.980;5.850;2022-11-20T16:07:04;100212.44;;;2.99;90.85
51603;BME280;37954;51.980;5.850;2022-11-20T16:11:17;100217.41;;;3.02;90.41
51603;BME280;37954;51.980;5.850;2022-11-20T16:15:29;100188.94;;;2.96;90.79
51603;BME280;37954;51.980;5.850;2022-11-20T16:19:59;100179.97;;;2.97;90.58
51603;BME280;37954;51.980;5.850;2022-11-20T16:24:12;100159.59;;;2.97;91.50
51603;BME280;37954;51.980;5.850;2022-11-20T16:28:24;100133.69;;;2.99;91.21
51603;BME280;37954;51.980;5.850;2022-11-20T16:32:36;100139.91;;;3.06;91.23
51603;BME280;37954;51.980;5.850;2022-11-20T16:36:49;100128.47;;;3.06;91.70
51603;BME280;37954;51.980;5.850;2022-11-20T16:41:02;100118.94;;;3.11;91.73
51603;BME280;37954;51.980;5.850;2022-11-20T16:45:14;100108.50;;;3.10;91.83
51603;BME280;37954;51.980;5.850;2022-11-20T16:49:33;100097.94;;;3.17;91.91
51603;BME280;37954;51.980;5.850;2022-11-20T16:53:45;100096.28;;;3.15;92.13
51603;BME280;37954;51.980;5.850;2022-11-20T16:57:56;100082.84;;;3.17;92.43
51603;BME280;37954;51.980;5.850;2022-11-20T17:02:09;100076.34;;;3.20;92.30
51603;BME280;37954;51.980;5.850;2022-11-20T17:06:23;100076.16;;;3.21;92.50
51603;BME280;37954;51.980;5.850;2022-11-20T17:10:35;100064.47;;;3.15;92.57
51603;BME280;37954;51.980;5.850;2022-11-20T17:14:47;100047.34;;;3.18;92.68
51603;BME280;37954;51.980;5.850;2022-11-20T17:18:59;100046.13;;;3.21;92.80
51603;BME280;37954;51.980;5.850;2022-11-20T17:23:14;100040.63;;;3.22;92.92
51603;BME280;37954;51.980;5.850;2022-11-20T17:27:25;100042.28;;;3.23;93.15
51603;BME280;37954;51.980;5.850;2022-11-20T17:31:37;100021.25;;;3.22;92.93
51603;BME280;37954;51.980;5.850;2022-11-20T17:35:49;100024.16;;;3.27;93.14
51603;BME280;37954;51.980;5.850;2022-11-20T17:40:01;100019.66;;;3.27;93.64
51603;BME280;37954;51.980;5.850;2022-11-20T17:44:12;100020.06;;;3.31;93.22
51603;BME280;37954;51.980;5.850;2022-11-20T17:48:24;100014.56;;;3.32;92.98
51603;BME280;37954;51.980;5.850;2022-11-20T17:52:36;100013.38;;;3.35;93.51
51603;BME280;37954;51.980;5.850;2022-11-20T17:56:47;100006.22;;;3.35;93.64
51603;BME280;37954;51.980;5.850;2022-11-20T18:01:18;100004.19;;;3.37;93.52
51603;BME280;37954;51.980;5.850;2022-11-20T18:05:30;99998.50;;;3.40;93.37
51603;BME280;37954;51.980;5.850;2022-11-20T18:09:41;99986.88;;;3.41;93.62
51603;BME280;37954;51.980;5.850;2022-11-20T18:13:55;99987.88;;;3.40;93.71
51603;BME280;37954;51.980;5.850;2022-11-20T18:18:26;99988.91;;;3.39;93.86
51603;BME280;37954;51.980;5.850;2022-11-20T18:22:37;99987.88;;;3.40;94.00
51603;BME280;37954;51.980;5.850;2022-11-20T18:26:49;99983.78;;;3.38;94.06
51603;BME280;37954;51.980;5.850;2022-11-20T18:31:04;99985.88;;;3.42;94.12
51603;BME280;37954;51.980;5.850;2022-11-20T18:35:16;99986.69;;;3.43;94.13
51603;BME280;37954;51.980;5.850;2022-11-20T18:39:28;99992.41;;;3.46;94.34
51603;BME280;37954;51.980;5.850;2022-11-20T18:43:40;99992.41;;;3.46;94.34
51603;BME280;37954;51.980;5.850;2022-11-20T18:48:10;99993.22;;;3.47;94.63
51603;BME280;37954;51.980;5.850;2022-11-20T18:52:29;99997.94;;;3.45;94.28
51603;BME280;37954;51.980;5.850;2022-11-20T18:56:44;100007.13;;;3.49;95.11
51603;BME280;37954;51.980;5.850;2022-11-20T19:00:55;100005.09;;;3.51;94.95
51603;BME280;37954;51.980;5.850;2022-11-20T19:05:08;100003.06;;;3.53;95.08
51603;BME280;37954;51.980;5.850;2022-11-20T19:09:20;99996.13;;;3.52;94.74
51603;BME280;37954;51.980;5.850;2022-11-20T19:13:34;100004.91;;;3.53;94.62
51603;BME280;37954;51.980;5.850;2022-11-20T19:17:46;100008.75;;;3.50;94.27
51603;BME280;37954;51.980;5.850;2022-11-20T19:21:57;100021.47;;;3.55;94.72
51603;BME280;37954;51.980;5.850;2022-11-20T19:26:09;100024.50;;;3.52;94.01
51603;BME280;37954;51.980;5.850;2022-11-20T19:30:20;100030.63;;;3.52;94.49
51603;BME280;37954;51.980;5.850;2022-11-20T19:34:32;100039.41;;;3.53;94.16
51603;BME280;37954;51.980;5.850;2022-11-20T19:38:50;100044.34;;;3.56;93.63
51603;BME280;37954;51.980;5.850;2022-11-20T19:43:02;100042.06;;;3.53;94.02
51603;BME280;37954;51.980;5.850;2022-11-20T19:47:15;100040.22;;;3.53;93.81
51603;BME280;37954;51.980;5.850;2022-11-20T19:51:29;100031.25;;;3.54;93.54
51603;BME280;37954;51.980;5.850;2022-11-20T19:55:41;100025.31;;;3.52;93.63
51603;BME280;37954;51.980;5.850;2022-11-20T19:59:55;100019.75;;;3.47;93.45
51603;BME280;37954;51.980;5.850;2022-11-20T20:04:07;100012.41;;;3.42;93.31
51603;BME280;37954;51.980;5.850;2022-11-20T20:08:19;100017.03;;;3.34;93.39
51603;BME280;37954;51.980;5.850;2022-11-20T20:12:30;100026.38;;;3.30;93.35
51603;BME280;37954;51.980;5.850;2022-11-20T20:16:47;100033.16;;;3.32;93.38
51603;BME280;37954;51.980;5.850;2022-11-20T20:21:03;100044.97;;;3.30;93.32
51603;BME280;37954;51.980;5.850;2022-11-20T20:25:15;100053.16;;;3.28;93.43
51603;BME280;37954;51.980;5.850;2022-11-20T20:29:27;100060.31;;;3.34;93.56
51603;BME280;37954;51.980;5.850;2022-11-20T20:33:39;100068.09;;;3.36;93.68
51603;BME280;37954;51.980;5.850;2022-11-20T20:37:51;100072.63;;;3.42;93.53
51603;BME280;37954;51.980;5.850;2022-11-20T20:42:03;100073.06;;;3.45;93.33
51603;BME280;37954;51.980;5.850;2022-11-20T20:46:14;100085.94;;;3.48;93.59
51603;BME280;37954;51.980;5.850;2022-11-20T20:50:26;100094.34;;;3.52;93.42
51603;BME280;37954;51.980;5.850;2022-11-20T20:54:38;100098.25;;;3.56;93.77
51603;BME280;37954;51.980;5.850;2022-11-20T20:58:52;100092.13;;;3.56;93.44
51603;BME280;37954;51.980;5.850;2022-11-20T21:03:09;100092.06;;;3.49;93.25
51603;BME280;37954;51.980;5.850;2022-11-20T21:07:20;100113.00;;;3.59;93.51
51603;BME280;37954;51.980;5.850;2022-11-20T21:11:33;100090.69;;;3.53;93.30
51603;BME280;37954;51.980;5.850;2022-11-20T21:15:47;100106.59;;;3.53;93.09
51603;BME280;37954;51.980;5.850;2022-11-20T21:19:59;100099.66;;;3.52;93.02
51603;BME280;37954;51.980;5.850;2022-11-20T21:24:10;100105.22;;;3.57;93.22
51603;BME280;37954;51.980;5.850;2022-11-20T21:28:22;100109.25;;;3.53;93.06
51603;BME280;37954;51.980;5.850;2022-11-20T21:32:33;100115.00;;;3.57;92.85
51603;BME280;37954;51.980;5.850;2022-11-20T21:36:45;100113.38;;;3.56;93.03
51603;BME280;37954;51.980;5.850;2022-11-20T21:40:57;100114.38;;;3.55;93.04
51603;BME280;37954;51.980;5.850;2022-11-20T21:45:09;100121.59;;;3.61;93.10
51603;BME280;37954;51.980;5.850;2022-11-20T21:49:20;100109.72;;;3.57;92.90
51603;BME280;37954;51.980;5.850;2022-11-20T21:53:33;100120.91;;;3.52;92.85
51603;BME280;37954;51.980;5.850;2022-11-20T21:57:44;100114.56;;;3.53;92.58
51603;BME280;37954;51.980;5.850;2022-11-20T22:01:56;100124.44;;;3.59;92.95
51603;BME280;37954;51.980;5.850;2022-11-20T22:06:08;100127.72;;;3.61;92.46
51603;BME280;37954;51.980;5.850;2022-11-20T22:10:20;100120.38;;;3.63;92.92
51603;BME280;37954;51.980;5.850;2022-11-20T22:14:31;100122.63;;;3.66;92.75
51603;BME280;37954;51.980;5.850;2022-11-20T22:18:45;100134.06;;;3.67;92.80
51603;BME280;37954;51.980;5.850;2022-11-20T22:22:57;100141.84;;;3.68;92.64
51603;BME280;37954;51.980;5.850;2022-11-20T22:27:09;100152.28;;;3.70;92.73
51603;BME280;37954;51.980;5.850;2022-11-20T22:31:22;100159.03;;;3.72;92.93
51603;BME280;37954;51.980;5.850;2022-11-20T22:35:34;100151.66;;;3.68;92.60
51603;BME280;37954;51.980;5.850;2022-11-20T22:39:45;100147.31;;;3.60;92.64
51603;BME280;37954;51.980;5.850;2022-11-20T22:44:02;100158.16;;;3.65;93.00
51603;BME280;37954;51.980;5.850;2022-11-20T22:48:14;100181.69;;;3.68;92.95
51603;BME280;37954;51.980;5.850;2022-11-20T22:52:25;100179.41;;;3.65;92.62
51603;BME280;37954;51.980;5.850;2022-11-20T22:56:37;100191.09;;;3.71;92.90
51603;BME280;37954;51.980;5.850;2022-11-20T23:00:49;100184.72;;;3.65;92.44
51603;BME280;37954;51.980;5.850;2022-11-20T23:05:01;100202.28;;;3.66;92.49
51603;BME280;37954;51.980;5.850;2022-11-20T23:09:12;100203.50;;;3.64;92.43
51603;BME280;37954;51.980;5.850;2022-11-20T23:13:24;100203.72;;;3.62;92.50
51603;BME280;37954;51.980;5.850;2022-11-20T23:17:36;100191.44;;;3.61;92.39